CYAZ/YAZ METAR and TAF weather

Enter ICAO airport designator
Station Type Date Time Source
CYAZ METAR 2022/06/27 01:00 UTC NOAA

CYAZ 270100Z 30009G15KT 15SM FEW240 28/10 A2999 RMK CI1 CI TR LAST STFD OBS/NXT 271300UTC SLP156 DENSITY ALT 1600FT


Station Type Date Time Source
CYAZ Decoded METAR 2022/06/27 01:00 UTC NOAA

Tofino Airport, Canada (CYAZ) 49-05N 125-46W
Jun 26, 2022 - 09:00 PM EDT / 2022.06.27 0100 UTC
Wind: from the WNW (300 degrees) at 10 MPH (9 KT) gusting to 17 MPH (15 KT):0
Visibility: 15 mile(s):0
Sky conditions: mostly clear
Temperature: 82 F (28 C)
Dew Point: 50 F (10 C)
Relative Humidity: 32%
Pressure (altimeter): 29.99 in. Hg (1015 hPa)
ob: CYAZ 270100Z 30009G15KT 15SM FEW240 28/10 A2999 RMK CI1 CI TR LAST STFD OBS/NXT 271300UTC SLP156 DENSITY ALT 1600FT
cycle: 1

Station Type Date Time Source
CYAZ TAF 2022/06/26 19:00 UTC NOAA

TAF CYAZ 261840Z 2619/2701 22005KT P6SM SKC
BECMG 2621/2623 30008KT
RMK NXT FCST BY 271500Z

Example: see airport list